createdAt,value
2017-03-26T00:00:21.989Z,997.53
2017-03-26T00:01:22.022Z,997.5
2017-03-26T00:02:22.052Z,997.45
2017-03-26T00:03:22.071Z,997.48
2017-03-26T00:04:22.102Z,997.47
2017-03-26T00:05:22.129Z,997.47
2017-03-26T00:06:22.158Z,997.47
2017-03-26T00:07:22.183Z,997.4
2017-03-26T00:08:22.213Z,997.47
2017-03-26T00:09:22.242Z,997.5
2017-03-26T00:10:22.268Z,997.46
2017-03-26T00:11:22.299Z,997.37
2017-03-26T00:12:22.324Z,997.44
2017-03-26T00:13:22.352Z,997.44
2017-03-26T00:14:22.380Z,997.5
2017-03-26T00:15:22.409Z,997.49
2017-03-26T00:16:22.434Z,997.46
2017-03-26T00:17:22.463Z,997.44
2017-03-26T00:18:22.491Z,997.52
2017-03-26T00:19:22.516Z,997.52
2017-03-26T00:20:22.544Z,997.54
2017-03-26T00:21:22.568Z,997.47
2017-03-26T00:22:22.602Z,997.43
2017-03-26T00:23:22.629Z,997.45
2017-03-26T00:24:22.652Z,997.44
2017-03-26T00:25:22.685Z,997.44
2017-03-26T00:26:22.714Z,997.44
2017-03-26T00:27:22.741Z,997.36
2017-03-26T00:28:22.770Z,997.43
2017-03-26T00:29:22.792Z,997.4
2017-03-26T00:30:22.825Z,997.47
2017-03-26T00:31:22.853Z,997.45
2017-03-26T00:32:22.880Z,997.45
2017-03-26T00:33:22.905Z,997.52
2017-03-26T00:34:22.936Z,997.51
2017-03-26T00:35:22.967Z,997.52
2017-03-26T00:36:22.989Z,997.51
2017-03-26T00:37:23.019Z,997.48
2017-03-26T00:38:23.048Z,997.46
2017-03-26T00:39:23.068Z,997.47
2017-03-26T00:40:23.099Z,997.5
2017-03-26T00:41:23.132Z,997.42
2017-03-26T00:42:23.158Z,997.44
2017-03-26T00:43:23.182Z,997.46
2017-03-26T00:44:23.212Z,997.38
2017-03-26T00:45:23.241Z,997.45
2017-03-26T00:46:23.269Z,997.4
2017-03-26T00:47:23.294Z,997.38
2017-03-26T00:48:23.320Z,997.4
2017-03-26T00:49:23.345Z,997.41
2017-03-26T00:50:23.380Z,997.38
2017-03-26T00:51:23.405Z,997.33
2017-03-26T00:52:23.436Z,997.29
2017-03-26T00:53:23.461Z,997.3
2017-03-26T00:54:23.482Z,997.32
2017-03-26T00:55:23.516Z,997.26
2017-03-26T00:56:23.542Z,997.27
2017-03-26T00:57:23.567Z,997.26
2017-03-26T00:58:23.609Z,997.28
2017-03-26T00:59:23.625Z,997.25
2017-03-26T01:00:23.659Z,997.21
2017-03-26T01:01:23.682Z,997.22
2017-03-26T01:02:23.701Z,997.22
2017-03-26T01:03:23.738Z,997.18
2017-03-26T01:04:23.766Z,997.17
2017-03-26T01:05:23.790Z,997.13
2017-03-26T01:06:23.819Z,997.09
2017-03-26T01:07:23.848Z,997.09
2017-03-26T01:08:23.873Z,997.14
2017-03-26T01:09:23.903Z,997.13
2017-03-26T01:10:23.931Z,997.18
2017-03-26T01:11:23.960Z,997.15
2017-03-26T01:12:23.985Z,997.16
2017-03-26T01:13:24.013Z,997.09
2017-03-26T01:14:24.038Z,997.13
2017-03-26T01:15:24.067Z,997.14
2017-03-26T01:16:24.095Z,997.15
2017-03-26T01:17:24.121Z,997.12
2017-03-26T01:18:24.152Z,997.17
2017-03-26T01:19:24.178Z,997.09
2017-03-26T01:20:24.206Z,997.08
2017-03-26T01:21:24.235Z,997.07
2017-03-26T01:22:24.260Z,997.11
2017-03-26T01:23:24.284Z,997.12
2017-03-26T01:24:24.318Z,997.13
2017-03-26T01:25:24.342Z,997.11
2017-03-26T01:26:24.370Z,997.08
2017-03-26T01:27:24.400Z,997.11
2017-03-26T01:28:24.427Z,997.06
2017-03-26T01:29:24.450Z,997.15
2017-03-26T01:30:24.481Z,997.15
2017-03-26T01:31:24.510Z,997.19
2017-03-26T01:32:24.538Z,997.14
2017-03-26T01:33:24.563Z,997.17
2017-03-26T01:34:24.589Z,997.14
2017-03-26T01:35:24.622Z,997.12
2017-03-26T01:36:24.646Z,997.08
2017-03-26T01:37:24.674Z,997.07
2017-03-26T01:38:24.702Z,997.13
2017-03-26T01:39:24.729Z,997.16
2017-03-26T01:40:24.757Z,997.12
2017-03-26T01:41:24.785Z,997.02
2017-03-26T01:42:24.811Z,997.07
2017-03-26T01:43:24.839Z,997.08
2017-03-26T01:44:24.869Z,997.06
2017-03-26T01:45:24.893Z,996.99
2017-03-26T01:46:24.922Z,997
2017-03-26T01:47:25.201Z,997
2017-03-26T01:48:24.974Z,997.01
2017-03-26T01:49:25.003Z,996.99
2017-03-26T01:50:25.033Z,996.91
2017-03-26T01:51:25.057Z,996.97
2017-03-26T01:52:25.333Z,996.98
2017-03-26T01:53:25.115Z,996.98
2017-03-26T01:54:25.145Z,997.01
2017-03-26T01:55:25.168Z,996.99
2017-03-26T01:56:25.197Z,996.96
2017-03-26T01:57:25.478Z,997.01
2017-03-26T01:58:25.250Z,997.02
2017-03-26T01:59:25.279Z,997.07
2017-03-26T02:00:25.309Z,997.04
2017-03-26T02:01:25.338Z,997.06
2017-03-26T02:02:25.362Z,997.07
2017-03-26T02:03:25.393Z,997.1
2017-03-26T02:04:25.415Z,997.11
2017-03-26T02:05:25.443Z,997.09
2017-03-26T02:06:25.473Z,997.1
2017-03-26T02:07:25.497Z,997.13
2017-03-26T02:08:25.521Z,997.1
2017-03-26T02:09:25.554Z,997.17
2017-03-26T02:10:25.584Z,997.12
2017-03-26T02:11:25.608Z,997.15
2017-03-26T02:12:25.637Z,997.15
2017-03-26T02:13:25.663Z,997.14
2017-03-26T02:14:25.690Z,997.17
2017-03-26T02:15:25.720Z,997.18
2017-03-26T02:16:25.746Z,997.19
2017-03-26T02:17:25.773Z,997.21
2017-03-26T02:18:25.797Z,997.28
2017-03-26T02:19:25.827Z,997.26
2017-03-26T02:20:25.853Z,997.3
2017-03-26T02:21:25.883Z,997.29
2017-03-26T02:22:25.909Z,997.33
2017-03-26T02:23:25.937Z,997.35
2017-03-26T02:24:25.966Z,997.3
2017-03-26T02:25:25.990Z,997.33
2017-03-26T02:26:26.019Z,997.29
2017-03-26T02:27:26.043Z,997.37
2017-03-26T02:28:26.074Z,997.3
2017-03-26T02:29:26.102Z,997.38
2017-03-26T02:30:26.125Z,997.36
2017-03-26T02:31:26.154Z,997.34
2017-03-26T02:32:26.183Z,997.4
2017-03-26T02:33:26.207Z,997.39
2017-03-26T02:34:26.238Z,997.34
2017-03-26T02:35:26.265Z,997.37
2017-03-26T02:36:26.292Z,997.41
2017-03-26T02:37:26.324Z,997.46
2017-03-26T02:38:26.344Z,997.37
2017-03-26T02:39:26.373Z,997.43
2017-03-26T02:40:26.397Z,997.42
2017-03-26T02:41:26.431Z,997.37
2017-03-26T02:42:26.456Z,997.42
2017-03-26T02:43:26.488Z,997.43
2017-03-26T02:44:26.510Z,997.47
2017-03-26T02:45:26.537Z,997.46
2017-03-26T02:46:26.566Z,997.43
2017-03-26T02:47:26.591Z,997.46
2017-03-26T02:48:26.625Z,997.44
2017-03-26T02:49:26.645Z,997.48
2017-03-26T02:50:26.671Z,997.42
2017-03-26T02:51:26.703Z,997.43
2017-03-26T02:52:26.726Z,997.46
2017-03-26T02:53:26.755Z,997.42
2017-03-26T02:54:26.785Z,997.43
2017-03-26T02:55:26.806Z,997.47
2017-03-26T02:56:26.838Z,997.46
2017-03-26T02:57:26.867Z,997.5
2017-03-26T02:58:26.893Z,997.52
2017-03-26T02:59:26.925Z,997.5
2017-03-26T03:00:26.945Z,997.53
2017-03-26T03:01:26.973Z,997.54
2017-03-26T03:02:27.002Z,997.53
2017-03-26T03:03:27.028Z,997.56
2017-03-26T03:04:27.056Z,997.56
2017-03-26T03:05:27.080Z,997.61
2017-03-26T03:06:27.114Z,997.61
2017-03-26T03:07:27.137Z,997.64
2017-03-26T03:08:27.164Z,997.57
2017-03-26T03:09:27.192Z,997.57
2017-03-26T03:10:27.221Z,997.58
2017-03-26T03:11:27.246Z,997.56
2017-03-26T03:12:27.273Z,997.57
2017-03-26T03:13:27.295Z,997.55
2017-03-26T03:14:27.328Z,997.57
2017-03-26T03:15:27.355Z,997.54
2017-03-26T03:16:27.379Z,997.54
2017-03-26T03:17:27.411Z,997.58
2017-03-26T03:18:27.439Z,997.56
2017-03-26T03:19:27.463Z,997.59
2017-03-26T03:20:27.491Z,997.65
2017-03-26T03:21:27.527Z,997.61
2017-03-26T03:22:27.545Z,997.61
2017-03-26T03:23:27.574Z,997.63
2017-03-26T03:24:27.599Z,997.66
2017-03-26T03:25:27.627Z,997.69
2017-03-26T03:26:27.649Z,997.65
2017-03-26T03:27:27.681Z,997.69
2017-03-26T03:28:27.710Z,997.66
2017-03-26T03:29:27.735Z,997.7
2017-03-26T03:30:27.764Z,997.76
2017-03-26T03:31:27.797Z,997.77
2017-03-26T03:32:27.819Z,997.78
2017-03-26T03:33:27.846Z,997.79
2017-03-26T03:34:27.876Z,997.8
2017-03-26T03:35:27.898Z,997.77
2017-03-26T03:36:27.925Z,997.79
2017-03-26T03:37:27.955Z,997.8
2017-03-26T03:38:27.983Z,997.82
2017-03-26T03:39:28.010Z,997.82
2017-03-26T03:40:28.035Z,997.88
2017-03-26T03:41:28.064Z,997.92
2017-03-26T03:42:28.090Z,997.93
2017-03-26T03:43:28.116Z,997.96
2017-03-26T03:44:28.142Z,997.97
2017-03-26T03:45:28.169Z,998.06
2017-03-26T03:46:28.194Z,998.06
2017-03-26T03:47:28.229Z,998.08
2017-03-26T03:48:28.249Z,998.07
2017-03-26T03:49:28.283Z,998.1
2017-03-26T03:50:28.307Z,998.1
2017-03-26T03:51:28.335Z,998.08
2017-03-26T03:52:28.359Z,998.11
2017-03-26T03:53:28.391Z,998.1
2017-03-26T03:54:28.416Z,998.1
2017-03-26T03:55:28.442Z,998.11
2017-03-26T03:56:28.473Z,998.13
2017-03-26T03:57:28.496Z,998.1
2017-03-26T03:58:28.524Z,998.11
2017-03-26T03:59:28.550Z,998.13
2017-03-26T04:00:28.578Z,998.15
2017-03-26T04:01:28.606Z,998.1
2017-03-26T04:02:28.631Z,998.04
2017-03-26T04:03:28.913Z,998
2017-03-26T04:04:28.684Z,998.06
2017-03-26T04:05:28.713Z,998.01
2017-03-26T04:06:28.738Z,997.97
2017-03-26T04:07:28.767Z,997.98
2017-03-26T04:08:29.048Z,997.93
2017-03-26T04:09:28.822Z,997.96
2017-03-26T04:10:28.848Z,997.99
2017-03-26T04:11:28.873Z,997.97
2017-03-26T04:12:28.899Z,997.93
2017-03-26T04:13:29.183Z,997.93
2017-03-26T04:14:28.957Z,997.95
2017-03-26T04:15:28.985Z,997.93
2017-03-26T04:16:29.009Z,997.91
2017-03-26T04:17:29.038Z,997.9
2017-03-26T04:18:29.568Z,997.81
2017-03-26T04:19:29.093Z,997.78
2017-03-26T04:20:29.121Z,997.74
2017-03-26T04:21:29.146Z,997.78
2017-03-26T04:22:29.171Z,997.81
2017-03-26T04:23:29.195Z,997.8
2017-03-26T04:24:29.229Z,997.87
2017-03-26T04:25:29.253Z,997.89
2017-03-26T04:26:29.281Z,997.96
2017-03-26T04:27:29.307Z,998.05
2017-03-26T04:28:29.337Z,998.14
2017-03-26T04:29:29.369Z,998.13
2017-03-26T04:30:29.389Z,998.12
2017-03-26T04:31:29.417Z,998.07
2017-03-26T04:32:29.442Z,998.07
2017-03-26T04:33:29.478Z,998.1
2017-03-26T04:34:29.499Z,998.09
2017-03-26T04:35:29.520Z,998.13
2017-03-26T04:36:29.553Z,998.17
2017-03-26T04:37:29.577Z,998.15
2017-03-26T04:38:29.606Z,998.14
2017-03-26T04:39:29.634Z,998.13
2017-03-26T04:40:29.660Z,998.17
2017-03-26T04:41:29.688Z,998.15
2017-03-26T04:42:29.713Z,998.15
2017-03-26T04:43:29.739Z,998.17
2017-03-26T04:44:29.766Z,998.2
2017-03-26T04:45:29.800Z,998.2
2017-03-26T04:46:29.819Z,998.22
2017-03-26T04:47:29.849Z,998.2
2017-03-26T04:48:29.874Z,998.17
2017-03-26T04:49:29.898Z,998.18
2017-03-26T04:50:29.931Z,998.14
2017-03-26T04:51:29.956Z,998.18
2017-03-26T04:52:29.985Z,998.22
2017-03-26T04:53:30.006Z,998.23
2017-03-26T04:54:30.038Z,998.24
2017-03-26T04:55:30.062Z,998.22
2017-03-26T04:56:30.097Z,998.22
2017-03-26T04:57:30.117Z,998.22
2017-03-26T04:58:30.144Z,998.24
2017-03-26T04:59:30.174Z,998.32
2017-03-26T05:00:30.200Z,998.29
2017-03-26T05:01:30.228Z,998.38
2017-03-26T05:02:30.252Z,998.38
2017-03-26T05:03:30.281Z,998.38
2017-03-26T05:04:30.304Z,998.38
2017-03-26T05:05:30.335Z,998.36
2017-03-26T05:06:30.364Z,998.35
2017-03-26T05:07:30.392Z,998.34
2017-03-26T05:08:30.418Z,998.41
2017-03-26T05:09:30.442Z,998.43
2017-03-26T05:10:30.470Z,998.42
2017-03-26T05:11:30.499Z,998.44
2017-03-26T05:12:30.523Z,998.42
2017-03-26T05:13:30.548Z,998.41
2017-03-26T05:14:30.588Z,998.43
2017-03-26T05:15:30.606Z,998.42
2017-03-26T05:16:30.630Z,998.5
2017-03-26T05:17:30.656Z,998.46
2017-03-26T05:18:30.688Z,998.49
2017-03-26T05:19:30.711Z,998.52
2017-03-26T05:20:30.737Z,998.48
2017-03-26T05:21:30.768Z,998.51
2017-03-26T05:22:30.795Z,998.47
2017-03-26T05:23:30.821Z,998.53
2017-03-26T05:24:30.841Z,998.52
2017-03-26T05:25:30.878Z,998.54
2017-03-26T05:26:30.898Z,998.54
2017-03-26T05:27:30.930Z,998.52
2017-03-26T05:28:30.954Z,998.48
2017-03-26T05:29:30.980Z,998.55
2017-03-26T05:30:31.008Z,998.51
2017-03-26T05:31:31.038Z,998.51
2017-03-26T05:32:31.063Z,998.5
2017-03-26T05:33:31.086Z,998.5
2017-03-26T05:34:31.116Z,998.55
2017-03-26T05:35:31.140Z,998.58
2017-03-26T05:36:31.169Z,998.53
2017-03-26T05:37:31.195Z,998.56
2017-03-26T05:38:31.227Z,998.59
2017-03-26T05:39:31.251Z,998.56
2017-03-26T05:40:31.276Z,998.56
2017-03-26T05:41:31.301Z,998.59
2017-03-26T05:42:31.328Z,998.6
2017-03-26T05:43:31.358Z,998.6
2017-03-26T05:44:31.386Z,998.62
2017-03-26T05:45:31.416Z,998.66
2017-03-26T05:46:31.438Z,998.64
2017-03-26T05:47:31.465Z,998.72
2017-03-26T05:48:31.489Z,998.72
2017-03-26T05:49:31.519Z,998.78
2017-03-26T05:50:31.543Z,998.79
2017-03-26T05:51:31.573Z,998.89
2017-03-26T05:52:31.598Z,998.88
2017-03-26T05:53:31.628Z,998.9
2017-03-26T05:54:31.659Z,998.92
2017-03-26T05:55:31.680Z,998.95
2017-03-26T05:56:31.709Z,998.97
2017-03-26T05:57:31.733Z,999
2017-03-26T05:58:31.762Z,999.01
2017-03-26T05:59:31.787Z,999.03
2017-03-26T06:00:31.812Z,999.08
2017-03-26T06:01:31.844Z,999.1
2017-03-26T06:02:31.869Z,999.12
2017-03-26T06:03:31.899Z,999.13
2017-03-26T06:04:31.923Z,999.07
2017-03-26T06:05:31.952Z,999.09
2017-03-26T06:06:31.974Z,999.08
2017-03-26T06:07:32.004Z,999.08
2017-03-26T06:08:32.030Z,999.07
2017-03-26T06:09:32.059Z,999.09
2017-03-26T06:10:32.083Z,999.09
2017-03-26T06:11:32.107Z,999.14
2017-03-26T06:12:32.141Z,999.13
2017-03-26T06:13:32.166Z,999.14
2017-03-26T06:14:32.195Z,999.15
2017-03-26T06:15:32.220Z,999.17
2017-03-26T06:16:32.244Z,999.12
2017-03-26T06:17:32.289Z,999.11
2017-03-26T06:18:32.312Z,999.18
2017-03-26T06:19:32.330Z,999.15
2017-03-26T06:20:32.354Z,999.14
2017-03-26T06:21:32.384Z,999.15
2017-03-26T06:22:32.408Z,999.15
2017-03-26T06:23:32.438Z,999.22
2017-03-26T06:24:32.466Z,999.19
2017-03-26T06:25:32.490Z,999.2
2017-03-26T06:26:32.514Z,999.21
2017-03-26T06:27:32.545Z,999.19
2017-03-26T06:28:32.574Z,999.19
2017-03-26T06:29:32.596Z,999.21
2017-03-26T06:30:32.626Z,999.21
2017-03-26T06:31:32.651Z,999.21
2017-03-26T06:32:32.677Z,999.28
2017-03-26T06:33:32.714Z,999.23
2017-03-26T06:34:32.735Z,999.24
2017-03-26T06:35:32.764Z,999.24
2017-03-26T06:36:32.790Z,999.23
2017-03-26T06:37:32.817Z,999.26
2017-03-26T06:38:32.845Z,999.26
2017-03-26T06:39:32.874Z,999.31
2017-03-26T06:40:32.897Z,999.3
2017-03-26T06:41:32.925Z,999.28
2017-03-26T06:42:32.955Z,999.29
2017-03-26T06:43:32.981Z,999.3
2017-03-26T06:44:33.009Z,999.27
2017-03-26T06:45:33.080Z,999.34
2017-03-26T06:46:33.063Z,999.29
2017-03-26T06:47:33.088Z,999.28
2017-03-26T06:48:33.117Z,999.24
2017-03-26T06:49:33.145Z,999.23
2017-03-26T06:50:33.169Z,999.27
2017-03-26T06:51:33.199Z,999.28
2017-03-26T06:52:33.226Z,999.28
2017-03-26T06:53:33.252Z,999.28
2017-03-26T06:54:33.280Z,999.3
2017-03-26T06:55:33.306Z,999.27
2017-03-26T06:56:33.333Z,999.26
2017-03-26T06:57:33.363Z,999.18
2017-03-26T06:58:33.397Z,999.23
2017-03-26T06:59:33.416Z,999.21
2017-03-26T07:00:33.440Z,999.16
2017-03-26T07:01:33.469Z,999.17
2017-03-26T07:02:33.494Z,999.2
2017-03-26T07:03:33.527Z,999.14
2017-03-26T07:04:33.553Z,999.11
2017-03-26T07:05:33.572Z,999.11
2017-03-26T07:06:33.606Z,999.17
2017-03-26T07:07:33.635Z,999.19
2017-03-26T07:08:33.659Z,999.16
2017-03-26T07:09:33.940Z,999.13
2017-03-26T07:10:33.717Z,999.1
2017-03-26T07:11:33.743Z,999.09
2017-03-26T07:12:33.770Z,999.1
2017-03-26T07:13:33.795Z,999.12
2017-03-26T07:14:34.072Z,999.19
2017-03-26T07:15:33.852Z,999.16
2017-03-26T07:16:33.877Z,999.16
2017-03-26T07:17:33.902Z,999.19
2017-03-26T07:18:33.941Z,999.11
2017-03-26T07:19:34.211Z,999.17
2017-03-26T07:20:33.988Z,999.21
2017-03-26T07:21:34.016Z,999.13
2017-03-26T07:22:34.042Z,999.16
2017-03-26T07:23:34.071Z,999.24
2017-03-26T07:24:34.348Z,999.19
2017-03-26T07:25:34.124Z,999.17
2017-03-26T07:26:34.153Z,999.13
2017-03-26T07:27:34.177Z,999.13
2017-03-26T07:28:34.209Z,999.25
2017-03-26T07:29:34.485Z,999.37
2017-03-26T07:30:34.259Z,999.49
2017-03-26T07:31:34.290Z,999.56
2017-03-26T07:32:34.314Z,999.56
2017-03-26T07:33:34.341Z,999.64
2017-03-26T07:34:34.614Z,999.67
2017-03-26T07:35:34.397Z,999.69
2017-03-26T07:36:34.424Z,999.72
2017-03-26T07:37:34.452Z,999.65
2017-03-26T07:38:34.481Z,999.63
2017-03-26T07:39:34.507Z,999.67
2017-03-26T07:40:34.535Z,999.68
2017-03-26T07:41:34.564Z,999.67
2017-03-26T07:42:34.595Z,999.64
2017-03-26T07:43:34.626Z,999.6
2017-03-26T07:44:34.650Z,999.49
2017-03-26T07:45:34.678Z,999.42
2017-03-26T07:46:34.705Z,999.44
2017-03-26T07:47:34.734Z,999.39
2017-03-26T07:48:34.764Z,999.39
2017-03-26T07:49:34.794Z,999.38
2017-03-26T07:50:34.823Z,999.43
2017-03-26T07:51:34.852Z,999.43
2017-03-26T07:52:34.876Z,999.45
2017-03-26T07:53:34.910Z,999.45
2017-03-26T07:54:34.938Z,999.45
2017-03-26T07:55:34.967Z,999.45
2017-03-26T07:56:34.996Z,999.52
2017-03-26T07:57:35.025Z,999.52
2017-03-26T07:58:35.054Z,999.47
2017-03-26T07:59:35.076Z,999.48
2017-03-26T08:00:35.111Z,999.47
2017-03-26T08:01:35.140Z,999.51
2017-03-26T08:02:35.167Z,999.49
2017-03-26T08:03:35.198Z,999.5
2017-03-26T08:04:35.224Z,999.51
2017-03-26T08:05:35.253Z,999.47
2017-03-26T08:06:35.283Z,999.44
2017-03-26T08:07:35.312Z,999.44
2017-03-26T08:08:35.339Z,999.48
2017-03-26T08:09:35.372Z,999.46
2017-03-26T08:10:35.398Z,999.5
2017-03-26T08:11:35.426Z,999.47
2017-03-26T08:12:35.460Z,999.43
2017-03-26T08:13:35.484Z,999.39
2017-03-26T08:14:35.512Z,999.44
2017-03-26T08:15:35.541Z,999.43
2017-03-26T08:16:35.570Z,999.43
2017-03-26T08:17:35.599Z,999.38
2017-03-26T08:18:35.633Z,999.37
2017-03-26T08:19:35.656Z,999.35
2017-03-26T08:20:35.686Z,999.31
2017-03-26T08:21:35.715Z,999.34
2017-03-26T08:22:35.743Z,999.3
2017-03-26T08:23:35.777Z,999.32
2017-03-26T08:24:35.800Z,999.33
2017-03-26T08:25:35.822Z,999.34
2017-03-26T08:26:35.853Z,999.23
2017-03-26T08:27:35.886Z,999.26
2017-03-26T08:28:35.911Z,999.29
2017-03-26T08:29:35.985Z,999.27
2017-03-26T08:30:35.970Z,999.36
2017-03-26T08:31:35.997Z,999.34
2017-03-26T08:32:36.026Z,999.36
2017-03-26T08:33:36.052Z,999.33
2017-03-26T08:34:36.078Z,999.36
2017-03-26T08:35:36.103Z,999.35
2017-03-26T08:36:36.139Z,999.35
2017-03-26T08:37:36.167Z,999.3
2017-03-26T08:38:36.197Z,999.37
2017-03-26T08:39:36.223Z,999.32
2017-03-26T08:40:36.248Z,999.34
2017-03-26T08:41:36.277Z,999.34
2017-03-26T08:42:36.305Z,999.35
2017-03-26T08:43:36.335Z,999.3
2017-03-26T08:44:36.365Z,999.3
2017-03-26T08:45:36.392Z,999.3
2017-03-26T08:46:36.420Z,999.31
2017-03-26T08:47:36.450Z,999.28
2017-03-26T08:48:36.478Z,999.33
2017-03-26T08:49:36.507Z,999.3
2017-03-26T08:50:36.532Z,999.31
2017-03-26T08:51:36.559Z,999.39
2017-03-26T08:52:36.589Z,999.44
2017-03-26T08:53:36.617Z,999.5
2017-03-26T08:54:36.642Z,999.48
2017-03-26T08:55:36.671Z,999.48
2017-03-26T08:56:36.700Z,999.48
2017-03-26T08:57:36.729Z,999.54
2017-03-26T08:58:36.757Z,999.54
2017-03-26T08:59:36.778Z,999.53
2017-03-26T09:00:36.814Z,999.53
2017-03-26T09:01:36.840Z,999.55
2017-03-26T09:02:36.870Z,999.44
2017-03-26T09:03:36.901Z,999.44
2017-03-26T09:04:36.925Z,999.42
2017-03-26T09:05:36.961Z,999.44
2017-03-26T09:06:36.980Z,999.46
2017-03-26T09:07:37.012Z,999.48
2017-03-26T09:08:37.037Z,999.49
2017-03-26T09:09:37.067Z,999.52
2017-03-26T09:10:37.347Z,999.47
2017-03-26T09:11:37.120Z,999.5
2017-03-26T09:12:37.148Z,999.52
2017-03-26T09:13:37.183Z,999.45
2017-03-26T09:14:37.203Z,999.43
2017-03-26T09:15:37.486Z,999.45
2017-03-26T09:16:37.263Z,999.49
2017-03-26T09:17:37.288Z,999.49
2017-03-26T09:18:37.316Z,999.47
2017-03-26T09:19:37.341Z,999.51
2017-03-26T09:20:37.624Z,999.51
2017-03-26T09:21:37.406Z,999.46
2017-03-26T09:22:37.427Z,999.49
2017-03-26T09:23:37.459Z,999.51
2017-03-26T09:24:37.490Z,999.51
2017-03-26T09:25:37.522Z,999.51
2017-03-26T09:26:37.549Z,999.5
2017-03-26T09:27:37.575Z,999.5
2017-03-26T09:28:37.600Z,999.54
2017-03-26T09:29:37.632Z,999.47
2017-03-26T09:30:37.658Z,999.52
2017-03-26T09:31:37.687Z,999.48
2017-03-26T09:32:37.716Z,999.47
2017-03-26T09:33:37.740Z,999.48
2017-03-26T09:34:37.772Z,999.45
2017-03-26T09:35:37.794Z,999.44
2017-03-26T09:36:37.829Z,999.4
2017-03-26T09:37:37.855Z,999.38
2017-03-26T09:38:37.878Z,999.45
2017-03-26T09:39:37.913Z,999.48
2017-03-26T09:40:37.943Z,999.48
2017-03-26T09:41:37.976Z,999.45
2017-03-26T09:42:37.999Z,999.47
2017-03-26T09:43:38.024Z,999.43
2017-03-26T09:44:38.056Z,999.47
2017-03-26T09:45:38.085Z,999.4
2017-03-26T09:46:38.111Z,999.47
2017-03-26T09:47:38.138Z,999.46
2017-03-26T09:48:38.163Z,999.48
2017-03-26T09:49:38.196Z,999.47
2017-03-26T09:50:38.225Z,999.43
2017-03-26T09:51:38.255Z,999.44
2017-03-26T09:52:38.278Z,999.44
2017-03-26T09:53:38.310Z,999.38
2017-03-26T09:54:38.335Z,999.41
2017-03-26T09:55:38.365Z,999.4
2017-03-26T09:56:38.392Z,999.4
2017-03-26T09:57:38.422Z,999.37
2017-03-26T09:58:38.488Z,999.38
2017-03-26T09:59:38.479Z,999.35
2017-03-26T10:00:38.509Z,999.31
2017-03-26T10:01:38.534Z,999.31
2017-03-26T10:02:38.561Z,999.33
2017-03-26T10:03:38.591Z,999.33
2017-03-26T10:04:38.622Z,999.36
2017-03-26T10:05:38.649Z,999.37
2017-03-26T10:06:38.680Z,999.36
2017-03-26T10:07:38.703Z,999.38
2017-03-26T10:08:38.736Z,999.35
2017-03-26T10:09:38.768Z,999.35
2017-03-26T10:10:38.789Z,999.31
2017-03-26T10:11:38.817Z,999.32
2017-03-26T10:12:38.842Z,999.32
2017-03-26T10:13:38.877Z,999.3
2017-03-26T10:14:38.902Z,999.36
2017-03-26T10:15:38.932Z,999.38
2017-03-26T10:16:38.959Z,999.36
2017-03-26T10:17:38.987Z,999.43
2017-03-26T10:18:39.017Z,999.4
2017-03-26T10:19:39.042Z,999.4
2017-03-26T10:20:39.074Z,999.38
2017-03-26T10:21:39.100Z,999.4
2017-03-26T10:22:51.861Z,999.39
2017-03-26T10:23:39.157Z,999.34
2017-03-26T10:24:39.187Z,999.31
2017-03-26T10:25:39.215Z,999.36
2017-03-26T10:26:39.240Z,999.39
2017-03-26T10:27:39.269Z,999.34
2017-03-26T10:28:39.298Z,999.34
2017-03-26T10:29:39.327Z,999.32
2017-03-26T10:30:39.352Z,999.37
2017-03-26T10:31:39.385Z,999.34
2017-03-26T10:32:39.414Z,999.29
2017-03-26T10:33:39.437Z,999.28
2017-03-26T10:34:39.467Z,999.27
2017-03-26T10:35:39.495Z,999.27
2017-03-26T10:36:39.523Z,999.21
2017-03-26T10:37:39.555Z,999.2
2017-03-26T10:38:39.582Z,999.24
2017-03-26T10:39:39.610Z,999.23
2017-03-26T10:40:39.636Z,999.23
2017-03-26T10:41:39.663Z,999.25
2017-03-26T10:42:39.696Z,999.28
2017-03-26T10:43:39.726Z,999.22
2017-03-26T10:44:39.752Z,999.22
2017-03-26T10:45:39.779Z,999.19
2017-03-26T10:46:39.807Z,999.18
2017-03-26T10:47:39.837Z,999.13
2017-03-26T10:48:39.866Z,999.08
2017-03-26T10:49:39.893Z,999.08
2017-03-26T10:50:39.924Z,999.07
2017-03-26T10:51:39.949Z,999.1
2017-03-26T10:52:39.981Z,999.09
2017-03-26T10:53:40.005Z,999.12
2017-03-26T10:54:40.034Z,999.1
2017-03-26T10:55:40.063Z,999.12
2017-03-26T10:56:40.091Z,999.07
2017-03-26T10:57:40.121Z,999.01
2017-03-26T10:58:40.150Z,999.06
2017-03-26T10:59:40.179Z,999.07
2017-03-26T11:00:40.207Z,999.04
2017-03-26T11:01:40.235Z,999.01
2017-03-26T11:02:40.265Z,999.03
2017-03-26T11:03:40.289Z,998.97
2017-03-26T11:04:40.321Z,998.97
2017-03-26T11:05:40.347Z,999
2017-03-26T11:06:40.374Z,998.99
2017-03-26T11:07:40.405Z,998.98
2017-03-26T11:08:40.432Z,998.97
2017-03-26T11:09:40.461Z,998.95
2017-03-26T11:10:40.486Z,998.97
2017-03-26T11:11:40.519Z,998.93
2017-03-26T11:12:40.547Z,998.91
2017-03-26T11:13:40.576Z,998.96
2017-03-26T11:14:40.606Z,998.96
2017-03-26T11:15:40.630Z,998.97
2017-03-26T11:16:40.662Z,998.98
2017-03-26T11:17:40.692Z,998.99
2017-03-26T11:18:40.720Z,998.98
2017-03-26T11:19:40.749Z,998.98
2017-03-26T11:20:40.778Z,998.94
2017-03-26T11:21:40.806Z,999
2017-03-26T11:22:40.836Z,998.99
2017-03-26T11:23:40.859Z,998.99
2017-03-26T11:24:40.892Z,998.97
2017-03-26T11:25:40.920Z,999.01
2017-03-26T11:26:40.954Z,999.05
2017-03-26T11:27:40.980Z,999.01
2017-03-26T11:28:41.009Z,998.95
2017-03-26T11:29:41.037Z,998.93
2017-03-26T11:30:41.065Z,998.95
2017-03-26T11:31:41.343Z,998.97
2017-03-26T11:32:41.122Z,998.98
2017-03-26T11:33:41.152Z,999.01
2017-03-26T11:34:41.181Z,999.06
2017-03-26T11:35:41.210Z,999.06
2017-03-26T11:36:41.490Z,999.05
2017-03-26T11:37:41.268Z,999.08
2017-03-26T11:38:41.294Z,999.07
2017-03-26T11:39:41.323Z,999.08
2017-03-26T11:40:41.353Z,999.11
2017-03-26T11:41:41.629Z,999.09
2017-03-26T11:42:41.409Z,999.09
2017-03-26T11:43:41.439Z,999.1
2017-03-26T11:44:41.467Z,999.12
2017-03-26T11:45:41.497Z,999.18
2017-03-26T11:46:41.526Z,999.17
2017-03-26T11:47:41.554Z,999.14
2017-03-26T11:48:41.582Z,999.15
2017-03-26T11:49:41.612Z,999.16
2017-03-26T11:50:41.640Z,999.18
2017-03-26T11:51:41.666Z,999.18
2017-03-26T11:52:41.698Z,999.21
2017-03-26T11:53:41.727Z,999.2
2017-03-26T11:54:41.755Z,999.22
2017-03-26T11:55:41.780Z,999.23
2017-03-26T11:56:41.812Z,999.25
2017-03-26T11:57:41.841Z,999.21
2017-03-26T11:58:41.875Z,999.22
2017-03-26T11:59:41.904Z,999.25
2017-03-26T12:00:41.937Z,999.2
2017-03-26T12:01:41.961Z,999.24
2017-03-26T12:02:41.990Z,999.28
2017-03-26T12:03:42.022Z,999.35
2017-03-26T12:04:42.052Z,999.36
2017-03-26T12:05:42.082Z,999.43
2017-03-26T12:06:42.116Z,999.43
2017-03-26T12:07:42.146Z,999.54
2017-03-26T12:08:42.175Z,999.61
2017-03-26T12:09:42.203Z,999.66
2017-03-26T12:10:42.235Z,999.69
2017-03-26T12:11:42.264Z,999.72
2017-03-26T12:12:42.297Z,999.69
2017-03-26T12:13:42.331Z,999.7
2017-03-26T12:14:42.359Z,999.81
2017-03-26T12:15:42.390Z,999.86
2017-03-26T12:16:42.419Z,999.86
2017-03-26T12:17:42.454Z,999.94
2017-03-26T12:18:42.482Z,999.91
2017-03-26T12:19:42.514Z,999.91
2017-03-26T12:20:42.545Z,999.95
2017-03-26T12:21:42.576Z,999.98
2017-03-26T12:22:42.608Z,999.97
2017-03-26T12:23:42.642Z,999.96
2017-03-26T12:24:42.670Z,999.99
2017-03-26T12:25:42.703Z,1000.04
2017-03-26T12:26:42.735Z,1000.05
2017-03-26T12:27:42.769Z,1000.08
2017-03-26T12:28:42.797Z,1000.12
2017-03-26T12:29:42.829Z,1000.14
2017-03-26T12:30:42.862Z,1000.13
2017-03-26T12:31:42.895Z,1000.13